createdAt,value
2022-08-20T00:01:03.249Z,24.57
2022-08-20T00:03:38.662Z,24.56
2022-08-20T00:06:14.741Z,24.59
2022-08-20T00:08:41.917Z,24.56
2022-08-20T00:11:10.792Z,24.54
2022-08-20T00:13:44.085Z,24.51
2022-08-20T00:16:12.033Z,24.50
2022-08-20T00:18:39.879Z,24.47
2022-08-20T00:21:09.232Z,24.46
2022-08-20T00:23:41.763Z,24.47
2022-08-20T00:26:10.222Z,24.37
2022-08-20T00:28:37.696Z,24.36
2022-08-20T00:31:07.061Z,24.42
2022-08-20T00:33:34.232Z,24.31
2022-08-20T00:36:07.007Z,24.39
2022-08-20T00:38:35.145Z,24.44
2022-08-20T00:41:02.541Z,24.41
2022-08-20T00:43:43.607Z,24.39
2022-08-20T00:46:20.864Z,24.31
2022-08-20T00:48:50.989Z,24.27
2022-08-20T00:51:38.241Z,24.18
2022-08-20T00:54:14.120Z,24.17
2022-08-20T00:56:44.001Z,24.03
2022-08-20T00:59:15.549Z,24.15
2022-08-20T01:01:55.124Z,24.23
2022-08-20T01:04:22.594Z,24.22
2022-08-20T01:06:49.114Z,24.23
2022-08-20T01:09:15.779Z,23.97
2022-08-20T01:11:42.363Z,24.00
2022-08-20T01:14:43.680Z,24.12
2022-08-20T01:17:17.632Z,23.96
2022-08-20T01:20:09.774Z,24.05
2022-08-20T01:23:27.107Z,23.65
2022-08-20T01:25:55.897Z,24.04
2022-08-20T01:28:29.966Z,24.02
2022-08-20T01:30:56.677Z,24.02
2022-08-20T01:33:24.028Z,24.06
2022-08-20T01:35:52.342Z,23.95
2022-08-20T01:38:19.063Z,24.00
2022-08-20T01:41:03.968Z,23.58
2022-08-20T01:43:30.977Z,23.18
2022-08-20T01:46:04.172Z,23.51
2022-08-20T01:48:31.399Z,23.20
2022-08-20T01:51:13.574Z,23.54
2022-08-20T01:53:45.934Z,23.47
2022-08-20T01:56:21.521Z,23.35
2022-08-20T01:58:51.497Z,23.18
2022-08-20T02:01:27.383Z,23.39
2022-08-20T02:03:55.348Z,23.60
2022-08-20T02:06:26.939Z,23.57
2022-08-20T02:08:56.763Z,23.33
2022-08-20T02:11:23.941Z,23.67
2022-08-20T02:13:52.728Z,23.77
2022-08-20T02:16:24.023Z,23.82
2022-08-20T02:18:54.341Z,23.19
2022-08-20T02:21:23.608Z,23.12
2022-08-20T02:23:50.210Z,23.50
2022-08-20T02:26:19.121Z,23.65
2022-08-20T02:28:48.692Z,23.66
2022-08-20T02:31:16.486Z,23.69
2022-08-20T02:33:43.967Z,23.50
2022-08-20T02:36:31.990Z,23.45
2022-08-20T02:38:58.835Z,23.64
2022-08-20T02:41:25.368Z,23.71
2022-08-20T02:43:51.814Z,23.67
2022-08-20T02:46:21.461Z,23.72
2022-08-20T02:48:48.049Z,23.65
2022-08-20T02:51:14.706Z,23.62
2022-08-20T02:53:44.674Z,23.63
2022-08-20T02:56:11.638Z,23.59
2022-08-20T02:58:38.547Z,23.56
2022-08-20T03:01:09.684Z,23.55
2022-08-20T03:03:36.186Z,23.57
2022-08-20T03:06:04.517Z,23.57
2022-08-20T03:08:31.080Z,23.53
2022-08-20T03:10:58.007Z,23.56
2022-08-20T03:13:24.832Z,23.48
2022-08-20T03:15:58.644Z,23.49
2022-08-20T03:18:30.086Z,22.84
2022-08-20T03:20:56.917Z,22.58
2022-08-20T03:23:23.865Z,22.59
2022-08-20T03:25:50.589Z,22.67
2022-08-20T03:28:19.000Z,22.59
2022-08-20T03:30:45.965Z,23.11
2022-08-20T03:33:12.539Z,23.25
2022-08-20T03:35:39.394Z,23.18
2022-08-20T03:38:08.631Z,23.26
2022-08-20T03:40:36.224Z,23.26
2022-08-20T03:43:04.106Z,23.30
2022-08-20T03:45:32.441Z,23.13
2022-08-20T03:48:01.620Z,23.13
2022-08-20T03:50:31.014Z,23.13
2022-08-20T03:52:59.515Z,22.53
2022-08-20T03:55:29.748Z,22.77
2022-08-20T03:58:02.815Z,23.01
2022-08-20T04:00:36.741Z,23.13
2022-08-20T04:03:03.360Z,22.96
2022-08-20T04:05:31.292Z,22.94
2022-08-20T04:08:02.893Z,22.79
2022-08-20T04:10:30.893Z,22.90
2022-08-20T04:12:57.456Z,22.91
2022-08-20T04:15:24.487Z,22.92
2022-08-20T04:17:51.351Z,22.07
2022-08-20T04:20:23.731Z,22.42
2022-08-20T04:22:59.226Z,22.42
2022-08-20T04:25:36.027Z,22.55
2022-08-20T04:28:05.465Z,22.72
2022-08-20T04:30:33.012Z,22.80
2022-08-20T04:32:59.772Z,22.89
2022-08-20T04:35:27.985Z,22.92
2022-08-20T04:38:16.184Z,22.90
2022-08-20T04:40:58.178Z,22.90
2022-08-20T04:43:35.944Z,22.87
2022-08-20T04:46:06.296Z,22.90
2022-08-20T04:48:33.166Z,22.91
2022-08-20T04:51:01.952Z,22.90
2022-08-20T04:53:30.568Z,22.72
2022-08-20T04:55:59.934Z,22.86
2022-08-20T04:58:33.761Z,22.99
2022-08-20T05:01:04.029Z,22.95
2022-08-20T05:03:31.805Z,23.01
2022-08-20T05:05:59.202Z,22.98
2022-08-20T05:08:26.573Z,22.98
2022-08-20T05:10:59.906Z,23.11
2022-08-20T05:13:41.211Z,23.11
2022-08-20T05:16:08.137Z,22.90
2022-08-20T05:18:35.189Z,22.57
2022-08-20T05:21:08.110Z,22.73
2022-08-20T05:23:37.149Z,22.65
2022-08-20T05:26:09.026Z,22.14
2022-08-20T05:28:49.972Z,22.15
2022-08-20T05:31:32.603Z,22.35
2022-08-20T05:34:10.672Z,22.33
2022-08-20T05:36:40.069Z,22.29
2022-08-20T05:39:06.694Z,23.00
2022-08-20T05:41:33.151Z,22.87
2022-08-20T05:44:02.742Z,22.11
2022-08-20T05:46:32.382Z,22.29
2022-08-20T05:49:01.660Z,23.04
2022-08-20T05:51:29.855Z,22.47
2022-08-20T05:53:58.232Z,22.96
2022-08-20T05:56:26.805Z,23.31
2022-08-20T05:58:54.079Z,23.46
2022-08-20T06:01:21.182Z,23.23
2022-08-20T06:04:06.346Z,23.15
2022-08-20T06:06:44.608Z,23.57
2022-08-20T06:09:13.459Z,23.00
2022-08-20T06:11:39.972Z,22.79
2022-08-20T06:14:06.403Z,22.93
2022-08-20T06:16:32.968Z,23.55
2022-08-20T06:19:00.016Z,23.05
2022-08-20T06:21:29.401Z,23.17
2022-08-20T06:23:58.138Z,23.36
2022-08-20T06:26:29.905Z,23.51
2022-08-20T06:28:57.052Z,23.67
2022-08-20T06:31:23.663Z,24.14
2022-08-20T06:33:50.083Z,24.25
2022-08-20T06:36:18.817Z,24.32
2022-08-20T06:38:46.284Z,24.38
2022-08-20T06:41:13.151Z,24.43
2022-08-20T06:43:39.613Z,24.44
2022-08-20T06:46:06.881Z,24.26
2022-08-20T06:48:33.396Z,24.42
2022-08-20T06:50:59.859Z,24.49
2022-08-20T06:53:26.306Z,24.54
2022-08-20T06:55:54.956Z,24.23
2022-08-20T06:58:35.741Z,24.30
2022-08-20T07:01:10.538Z,24.50
2022-08-20T07:03:42.158Z,24.62
2022-08-20T07:06:22.082Z,24.65
2022-08-20T07:08:48.557Z,24.70
2022-08-20T07:11:15.011Z,24.64
2022-08-20T07:13:41.964Z,24.68
2022-08-20T07:16:08.810Z,23.70
2022-08-20T07:18:35.627Z,23.74
2022-08-20T07:21:02.066Z,24.50
2022-08-20T07:23:28.585Z,24.23
2022-08-20T07:25:58.341Z,24.04
2022-08-20T07:28:28.652Z,23.93
2022-08-20T07:31:15.889Z,24.08
2022-08-20T07:33:44.335Z,24.58
2022-08-20T07:36:11.760Z,24.77
2022-08-20T07:38:38.523Z,22.89
2022-08-20T07:41:13.022Z,23.57
2022-08-20T07:43:40.248Z,24.77
2022-08-20T07:46:09.121Z,24.14
2022-08-20T07:48:39.918Z,24.95
2022-08-20T07:51:08.548Z,25.27
2022-08-20T07:53:37.475Z,25.05
2022-08-20T07:56:08.246Z,25.34
2022-08-20T07:58:36.658Z,25.24
2022-08-20T08:01:04.142Z,25.44
2022-08-20T08:03:39.571Z,25.57
2022-08-20T08:06:18.257Z,25.16
2022-08-20T08:08:55.767Z,24.87
2022-08-20T08:11:22.513Z,25.57
2022-08-20T08:13:49.023Z,25.68
2022-08-20T08:16:15.671Z,25.37
2022-08-20T08:18:46.698Z,25.75
2022-08-20T08:21:13.368Z,25.83
2022-08-20T08:23:44.562Z,25.84
2022-08-20T08:26:19.015Z,25.91
2022-08-20T08:28:46.618Z,25.68
2022-08-20T08:31:13.696Z,25.67
2022-08-20T08:33:40.738Z,25.89
2022-08-20T08:36:12.549Z,25.62
2022-08-20T08:38:42.896Z,26.08
2022-08-20T08:41:19.897Z,26.27
2022-08-20T08:43:55.598Z,25.68
2022-08-20T08:46:27.306Z,26.04
2022-08-20T08:48:58.206Z,25.20
2022-08-20T08:51:39.580Z,25.75
2022-08-20T08:54:07.963Z,26.14
2022-08-20T08:56:35.794Z,25.34
2022-08-20T08:59:06.043Z,26.04
2022-08-20T09:01:55.499Z,26.01
2022-08-20T09:04:24.780Z,25.99
2022-08-20T09:06:54.565Z,25.27
2022-08-20T09:09:35.840Z,25.73
2022-08-20T09:12:06.179Z,26.25
2022-08-20T09:14:32.749Z,26.41
2022-08-20T09:16:59.339Z,26.50
2022-08-20T09:19:25.793Z,26.48
2022-08-20T09:21:52.458Z,26.01
2022-08-20T09:24:19.042Z,26.47
2022-08-20T09:26:45.735Z,25.90
2022-08-20T09:29:12.232Z,26.49
2022-08-20T09:31:38.988Z,26.38
2022-08-20T09:34:06.193Z,26.22
2022-08-20T09:36:33.161Z,26.21
2022-08-20T09:39:00.758Z,26.07
2022-08-20T09:41:29.580Z,26.78
2022-08-20T09:43:56.106Z,25.90
2022-08-20T09:46:27.312Z,26.82
2022-08-20T09:48:54.282Z,26.84
2022-08-20T09:51:21.042Z,26.88
2022-08-20T09:53:48.891Z,26.76
2022-08-20T09:56:16.032Z,26.17
2022-08-20T09:58:54.281Z,26.91
2022-08-20T10:01:22.615Z,27.18
2022-08-20T10:03:50.219Z,27.09
2022-08-20T10:06:19.579Z,27.28
2022-08-20T10:08:46.759Z,27.24
2022-08-20T10:11:13.213Z,27.33
2022-08-20T10:13:40.005Z,27.47
2022-08-20T10:16:06.879Z,27.08
2022-08-20T10:18:35.039Z,26.29
2022-08-20T10:21:01.627Z,26.45
2022-08-20T10:23:28.407Z,26.81
2022-08-20T10:25:54.842Z,26.91
2022-08-20T10:28:21.326Z,26.91
2022-08-20T10:30:47.828Z,27.39
2022-08-20T10:33:14.277Z,27.38
2022-08-20T10:35:40.750Z,27.57
2022-08-20T10:38:07.243Z,27.61
2022-08-20T10:40:33.728Z,26.38
2022-08-20T10:43:00.238Z,26.84
2022-08-20T10:45:26.704Z,27.18
2022-08-20T10:47:53.196Z,26.16
2022-08-20T10:50:20.107Z,27.25
2022-08-20T10:52:47.372Z,27.18
2022-08-20T10:55:14.082Z,27.83
2022-08-20T10:57:41.776Z,27.73
2022-08-20T11:00:12.505Z,27.06
2022-08-20T11:02:39.024Z,26.37
2022-08-20T11:05:09.845Z,27.05
2022-08-20T11:07:50.431Z,27.97
2022-08-20T11:10:26.922Z,27.17
2022-08-20T11:12:53.995Z,27.34
2022-08-20T11:15:20.455Z,28.09
2022-08-20T11:17:47.011Z,28.09
2022-08-20T11:20:15.841Z,28.03
2022-08-20T11:22:42.357Z,27.42
2022-08-20T11:25:09.396Z,27.43
2022-08-20T11:27:42.378Z,27.99
2022-08-20T11:30:12.627Z,27.89
2022-08-20T11:32:39.466Z,27.18
2022-08-20T11:35:24.434Z,28.06
2022-08-20T11:37:54.570Z,28.40
2022-08-20T11:40:21.533Z,27.68
2022-08-20T11:43:11.026Z,27.81
2022-08-20T11:45:37.488Z,27.54
2022-08-20T11:48:04.688Z,27.83
2022-08-20T11:50:31.231Z,28.20
2022-08-20T11:52:57.849Z,28.26
2022-08-20T11:55:30.132Z,27.80
2022-08-20T11:58:00.399Z,27.68
2022-08-20T12:00:33.095Z,27.53
2022-08-20T12:03:01.107Z,27.84
2022-08-20T12:05:29.467Z,27.95
2022-08-20T12:07:57.044Z,27.78
2022-08-20T12:10:24.485Z,28.19
2022-08-20T12:12:51.016Z,28.60
2022-08-20T12:15:17.607Z,28.36
2022-08-20T12:17:44.593Z,28.84
2022-08-20T12:20:13.828Z,28.89
2022-08-20T12:22:40.552Z,28.18
2022-08-20T12:25:08.233Z,27.71
2022-08-20T12:27:36.360Z,27.09
2022-08-20T12:30:07.800Z,28.06
2022-08-20T12:32:34.353Z,28.15
2022-08-20T12:35:00.957Z,28.21
2022-08-20T12:37:30.399Z,28.22
2022-08-20T12:39:59.718Z,28.51
2022-08-20T12:42:27.761Z,27.75
2022-08-20T12:44:54.282Z,28.75
2022-08-20T12:47:24.340Z,28.91
2022-08-20T12:50:04.583Z,29.06
2022-08-20T12:52:32.667Z,29.06
2022-08-20T12:55:00.355Z,28.40
2022-08-20T12:57:34.000Z,27.70
2022-08-20T13:00:13.679Z,27.76
2022-08-20T13:02:41.244Z,27.13
2022-08-20T13:05:12.760Z,25.22
2022-08-20T13:07:40.151Z,26.20
2022-08-20T13:10:09.176Z,25.53
2022-08-20T13:12:36.335Z,26.15
2022-08-20T13:15:03.554Z,26.01
2022-08-20T13:17:38.901Z,26.13
2022-08-20T13:20:10.103Z,25.63
2022-08-20T13:22:36.622Z,24.00
2022-08-20T13:25:03.930Z,24.77
2022-08-20T13:27:30.438Z,25.56
2022-08-20T13:29:59.067Z,26.03
2022-08-20T13:32:26.258Z,26.27
2022-08-20T13:34:53.164Z,24.15
2022-08-20T13:37:25.597Z,25.51
2022-08-20T13:39:53.408Z,25.99
2022-08-20T13:42:19.987Z,26.12
2022-08-20T13:44:49.392Z,26.45
2022-08-20T13:47:19.348Z,26.23
2022-08-20T13:49:47.375Z,26.63
2022-08-20T13:52:16.750Z,25.15
2022-08-20T13:54:43.687Z,24.53
2022-08-20T13:57:13.877Z,25.50
2022-08-20T13:59:43.004Z,25.04
2022-08-20T14:02:11.428Z,25.71
2022-08-20T14:04:38.810Z,25.86
2022-08-20T14:07:23.354Z,25.51
2022-08-20T14:09:55.364Z,26.21
2022-08-20T14:12:24.413Z,25.43
2022-08-20T14:14:52.241Z,25.67
2022-08-20T14:17:20.106Z,26.61
2022-08-20T14:19:48.551Z,26.97
2022-08-20T14:22:17.704Z,25.36
2022-08-20T14:24:48.132Z,25.98
2022-08-20T14:27:17.237Z,25.84
2022-08-20T14:29:45.254Z,25.90
2022-08-20T14:32:12.318Z,26.45
2022-08-20T14:34:39.627Z,26.25
2022-08-20T14:37:10.191Z,26.45
2022-08-20T14:39:36.884Z,25.93
2022-08-20T14:42:03.835Z,26.56
2022-08-20T14:44:30.416Z,26.59
2022-08-20T14:46:56.906Z,27.18
2022-08-20T14:49:23.361Z,27.21
2022-08-20T14:51:49.841Z,26.02
2022-08-20T14:54:16.376Z,25.88
2022-08-20T14:56:42.867Z,26.78
2022-08-20T14:59:09.453Z,26.61
2022-08-20T15:01:36.026Z,26.94
2022-08-20T15:04:02.675Z,26.35
2022-08-20T15:06:31.209Z,26.05
2022-08-20T15:08:57.725Z,26.01
2022-08-20T15:11:24.245Z,26.45
2022-08-20T15:13:50.737Z,26.54
2022-08-20T15:16:17.262Z,26.87
2022-08-20T15:18:43.775Z,26.89
2022-08-20T15:21:10.415Z,26.36
2022-08-20T15:23:37.045Z,26.80
2022-08-20T15:26:03.637Z,26.73
2022-08-20T15:28:30.138Z,26.59
2022-08-20T15:30:56.752Z,25.44
2022-08-20T15:33:23.286Z,25.78
2022-08-20T15:35:49.761Z,25.75
2022-08-20T15:38:16.419Z,25.78
2022-08-20T15:40:42.955Z,26.05
2022-08-20T15:43:09.476Z,26.07
2022-08-20T15:45:36.401Z,26.55
2022-08-20T15:48:10.577Z,26.76
2022-08-20T15:50:48.170Z,26.63
2022-08-20T15:53:27.741Z,26.47
2022-08-20T15:56:04.042Z,26.53
2022-08-20T15:58:49.619Z,27.18
2022-08-20T16:01:48.326Z,27.36
2022-08-20T16:04:27.709Z,26.92
2022-08-20T16:07:00.064Z,25.95
2022-08-20T16:09:35.445Z,26.17
2022-08-20T16:12:05.008Z,26.30
2022-08-20T16:14:38.094Z,26.77
2022-08-20T16:17:09.648Z,26.22
2022-08-20T16:19:48.862Z,26.74
2022-08-20T16:22:18.544Z,25.37
2022-08-20T16:24:45.211Z,26.30
2022-08-20T16:27:40.604Z,26.06
2022-08-20T16:30:12.327Z,26.06
2022-08-20T16:32:45.682Z,25.95
2022-08-20T16:35:32.825Z,26.19
2022-08-20T16:38:13.244Z,27.01
2022-08-20T16:41:21.121Z,27.10
2022-08-20T16:43:56.420Z,27.28
2022-08-20T16:46:30.182Z,26.53
2022-08-20T16:49:05.547Z,26.95
2022-08-20T16:51:42.121Z,25.87
2022-08-20T16:54:09.681Z,26.76
2022-08-20T16:56:42.789Z,26.31
2022-08-20T16:59:27.026Z,27.02
2022-08-20T17:02:07.302Z,26.51
2022-08-20T17:04:50.480Z,27.09
2022-08-20T17:07:40.308Z,26.89
2022-08-20T17:10:51.438Z,26.85
2022-08-20T17:13:17.845Z,25.96
2022-08-20T17:15:44.588Z,26.47
2022-08-20T17:18:21.805Z,26.22
2022-08-20T17:20:48.261Z,26.66
2022-08-20T17:23:18.327Z,25.93
2022-08-20T17:25:54.961Z,25.44
2022-08-20T17:28:26.006Z,26.47
2022-08-20T17:30:53.136Z,25.86
2022-08-20T17:33:27.805Z,26.89
2022-08-20T17:36:20.040Z,27.12
2022-08-20T17:38:59.545Z,27.10
2022-08-20T17:41:36.168Z,26.19
2022-08-20T17:44:06.431Z,26.96
2022-08-20T17:46:35.540Z,26.50
2022-08-20T17:49:07.515Z,26.94
2022-08-20T17:51:44.259Z,27.04
2022-08-20T17:54:34.371Z,27.11
2022-08-20T17:57:06.764Z,27.07
2022-08-20T18:00:00.622Z,27.01
2022-08-20T18:02:26.585Z,27.00
2022-08-20T18:04:55.233Z,26.95
2022-08-20T18:07:31.158Z,26.94
2022-08-20T18:10:03.058Z,26.79
2022-08-20T18:12:45.185Z,26.69
2022-08-20T18:15:24.256Z,26.59
2022-08-20T18:18:09.977Z,26.59
2022-08-20T18:20:37.755Z,26.25
2022-08-20T18:23:15.980Z,26.45
2022-08-20T18:25:52.476Z,26.43
2022-08-20T18:28:20.303Z,26.36
2022-08-20T18:30:59.311Z,26.32
2022-08-20T18:33:45.984Z,25.96
2022-08-20T18:36:28.350Z,26.07
2022-08-20T18:39:23.186Z,26.09
2022-08-20T18:42:06.627Z,26.10
2022-08-20T18:44:43.980Z,26.11
2022-08-20T18:47:29.442Z,26.04
2022-08-20T18:49:59.335Z,26.00
2022-08-20T18:52:30.139Z,25.96
2022-08-20T18:54:59.505Z,25.97
2022-08-20T18:57:32.094Z,25.97
2022-08-20T19:00:14.387Z,25.94
2022-08-20T19:02:59.298Z,25.88
2022-08-20T19:05:40.624Z,25.90
2022-08-20T19:08:07.857Z,25.89
2022-08-20T19:10:49.461Z,25.86
2022-08-20T19:13:34.699Z,25.91
2022-08-20T19:16:05.834Z,25.79
2022-08-20T19:18:40.794Z,25.74
2022-08-20T19:21:16.007Z,25.70
2022-08-20T19:23:50.147Z,25.69
2022-08-20T19:26:25.853Z,25.70
2022-08-20T19:29:15.881Z,25.64
2022-08-20T19:31:43.090Z,25.52
2022-08-20T19:34:25.775Z,25.44
2022-08-20T19:37:28.164Z,25.48
2022-08-20T19:39:52.439Z,25.39
2022-08-20T19:42:26.379Z,25.38
2022-08-20T19:45:08.975Z,25.24
2022-08-20T19:47:40.878Z,25.20
2022-08-20T19:50:20.623Z,25.27
2022-08-20T19:53:02.602Z,24.92
2022-08-20T19:55:35.266Z,25.05
2022-08-20T19:58:05.547Z,25.10
2022-08-20T20:00:42.278Z,25.02
2022-08-20T20:03:10.990Z,24.97
2022-08-20T20:05:50.927Z,24.93
2022-08-20T20:08:18.229Z,24.83
2022-08-20T20:10:52.626Z,24.82
2022-08-20T20:13:27.087Z,24.90
2022-08-20T20:15:58.330Z,24.83
2022-08-20T20:18:27.818Z,24.87
2022-08-20T20:21:08.988Z,24.80
2022-08-20T20:23:45.743Z,24.75
2022-08-20T20:26:19.886Z,24.54
2022-08-20T20:28:50.324Z,24.80
2022-08-20T20:31:28.574Z,24.82
2022-08-20T20:33:58.380Z,24.76
2022-08-20T20:36:44.094Z,24.74
2022-08-20T20:39:26.511Z,24.44
2022-08-20T20:41:55.235Z,24.57
2022-08-20T20:44:37.334Z,24.63
2022-08-20T20:47:07.643Z,24.66
2022-08-20T20:49:54.090Z,24.55
2022-08-20T20:52:29.762Z,24.27
2022-08-20T20:55:11.170Z,23.38
2022-08-20T20:57:39.116Z,23.90
2022-08-20T21:00:19.351Z,24.22
2022-08-20T21:02:46.543Z,24.12
2022-08-20T21:05:15.247Z,24.23
2022-08-20T21:07:53.608Z,24.41
2022-08-20T21:10:24.906Z,24.42
2022-08-20T21:12:53.199Z,23.75
2022-08-20T21:15:21.672Z,22.99
2022-08-20T21:17:48.194Z,23.14
2022-08-20T21:20:14.943Z,23.99
2022-08-20T21:22:41.443Z,23.53
2022-08-20T21:25:08.367Z,22.86
2022-08-20T21:27:35.783Z,22.54
2022-08-20T21:30:03.942Z,22.32
2022-08-20T21:32:30.454Z,22.83
2022-08-20T21:34:56.937Z,23.23
2022-08-20T21:37:23.534Z,22.66
2022-08-20T21:39:50.000Z,22.06
2022-08-20T21:42:28.250Z,21.52
2022-08-20T21:44:56.979Z,21.86
2022-08-20T21:47:23.601Z,22.63
2022-08-20T21:49:50.075Z,22.13
2022-08-20T21:52:16.530Z,22.15
2022-08-20T21:54:42.974Z,21.86
2022-08-20T21:57:18.307Z,21.88
2022-08-20T21:59:44.864Z,22.76
2022-08-20T22:02:11.417Z,22.83
2022-08-20T22:04:38.133Z,23.28
2022-08-20T22:07:06.049Z,23.85
2022-08-20T22:09:33.073Z,22.89
2022-08-20T22:12:03.854Z,22.59
2022-08-20T22:14:31.078Z,23.36
2022-08-20T22:16:57.715Z,23.32
2022-08-20T22:19:24.369Z,23.29
2022-08-20T22:21:57.668Z,23.01
2022-08-20T22:24:26.451Z,23.70
2022-08-20T22:26:52.893Z,23.42
2022-08-20T22:29:19.354Z,22.82
2022-08-20T22:31:46.179Z,23.50
2022-08-20T22:34:14.922Z,22.94
2022-08-20T22:36:41.549Z,23.41
2022-08-20T22:39:08.418Z,23.41
2022-08-20T22:41:35.540Z,22.36
2022-08-20T22:44:02.990Z,22.25
2022-08-20T22:46:33.589Z,22.96
2022-08-20T22:49:00.200Z,22.14
2022-08-20T22:51:35.651Z,23.43
2022-08-20T22:54:08.089Z,22.56
2022-08-20T22:56:34.951Z,22.58
2022-08-20T22:59:01.547Z,22.77
2022-08-20T23:01:29.134Z,22.62
2022-08-20T23:04:09.566Z,22.93
2022-08-20T23:06:36.092Z,23.00
2022-08-20T23:09:02.769Z,23.40
2022-08-20T23:11:29.527Z,21.78
2022-08-20T23:13:56.986Z,22.00
2022-08-20T23:16:25.228Z,22.58
2022-08-20T23:18:52.006Z,22.84
2022-08-20T23:21:18.463Z,23.37
2022-08-20T23:23:44.917Z,23.47
2022-08-20T23:26:16.729Z,23.65
2022-08-20T23:28:43.192Z,23.64
2022-08-20T23:31:09.664Z,23.56
2022-08-20T23:33:36.201Z,23.51
2022-08-20T23:36:05.314Z,23.60
2022-08-20T23:38:31.824Z,23.60
2022-08-20T23:40:58.400Z,23.63
2022-08-20T23:43:24.879Z,23.54
2022-08-20T23:45:51.611Z,23.47
2022-08-20T23:48:18.210Z,23.49
2022-08-20T23:50:44.698Z,23.43
2022-08-20T23:53:11.678Z,23.26
2022-08-20T23:55:38.169Z,23.35
2022-08-20T23:58:04.646Z,23.31
